Nawabshah, Pakistan
Current Conditions -  °F | °C
As of 12:55 AM on Friday 30 Jan 2015 (Local Time) from OPNH Reporting Station
Smoke Smoke  
Wind Chill: 52°   Ceiling: Unl
Heat Index: 52°   Visibility: 1.8mi
Dew Point: 45°   Wind: 0mph
Humidity: 76%   Direction: NA
Pressure: 30.09"   Gusts: NA
Location:  26.24°N, 68.4°E
Report Text: OPNH 291955Z 00000KT 3000M FU NSC 11/07 Q1019
Loading
Personal Weather Stations






























Interactive Weather Map New forecast layout! Learn more

10-Day Weather Forecast

Advertisements
Track Severe Weather on mobile